createdAt,value
2019-02-19T00:00:47.387Z,66.51
2019-02-19T00:01:47.374Z,66.20
2019-02-19T00:02:47.364Z,66.72
2019-02-19T00:03:47.356Z,67.03
2019-02-19T00:04:47.378Z,66.93
2019-02-19T00:05:56.312Z,66.93
2019-02-19T00:06:47.360Z,67.03
2019-02-19T00:07:47.307Z,67.03
2019-02-19T00:08:47.302Z,67.75
2019-02-19T00:09:47.286Z,67.85
2019-02-19T00:10:47.274Z,67.75
2019-02-19T00:11:47.304Z,67.13
2019-02-19T00:12:47.251Z,67.98
2019-02-19T00:13:47.243Z,67.95
2019-02-19T00:14:47.230Z,67.65
2019-02-19T00:15:47.218Z,67.98
2019-02-19T00:16:47.210Z,68.08
2019-02-19T00:17:47.210Z,67.57
2019-02-19T00:18:47.185Z,68.08
2019-02-19T00:19:47.172Z,67.47
2019-02-19T00:20:47.160Z,67.88
2019-02-19T00:21:47.155Z,67.68
2019-02-19T00:22:47.150Z,68.08
2019-02-19T00:23:47.140Z,68.08
2019-02-19T00:24:47.119Z,68.40
2019-02-19T00:25:47.110Z,68.08
2019-02-19T00:26:47.094Z,68.29
2019-02-19T00:27:47.082Z,68.40
2019-02-19T00:28:47.115Z,68.40
2019-02-19T00:29:47.063Z,68.80
2019-02-19T00:30:47.049Z,68.60
2019-02-19T00:31:47.039Z,68.53
2019-02-19T00:32:47.047Z,68.60
2019-02-19T00:33:47.023Z,69.12
2019-02-19T00:34:47.024Z,69.12
2019-02-19T00:35:46.993Z,68.60
2019-02-19T00:36:46.992Z,68.91
2019-02-19T00:37:46.973Z,68.50
2019-02-19T00:38:46.972Z,68.80
2019-02-19T00:39:46.962Z,69.15
2019-02-19T00:40:46.958Z,69.01
2019-02-19T00:41:46.926Z,69.15
2019-02-19T00:42:46.915Z,69.15
2019-02-19T00:43:46.903Z,69.35
2019-02-19T00:44:46.894Z,69.35
2019-02-19T00:45:46.912Z,69.35
2019-02-19T00:46:46.878Z,69.56
2019-02-19T00:47:46.858Z,69.56
2019-02-19T00:48:46.847Z,69.25
2019-02-19T00:49:46.841Z,69.42
2019-02-19T00:50:46.827Z,69.46
2019-02-19T00:51:46.841Z,69.56
2019-02-19T00:52:46.833Z,69.46
2019-02-19T00:53:46.806Z,69.87
2019-02-19T00:54:46.781Z,69.76
2019-02-19T00:55:46.770Z,69.87
2019-02-19T00:56:46.758Z,69.66
2019-02-19T00:57:46.756Z,69.66
2019-02-19T00:58:46.742Z,69.97
2019-02-19T00:59:46.723Z,70.18
2019-02-19T01:00:46.715Z,69.97
2019-02-19T01:01:46.703Z,69.87
2019-02-19T01:02:46.711Z,70.38
2019-02-19T01:03:46.681Z,70.38
2019-02-19T01:04:46.692Z,70.48
2019-02-19T01:05:46.657Z,70.38
2019-02-19T01:06:46.644Z,70.59
2019-02-19T01:07:46.638Z,70.59
2019-02-19T01:08:46.655Z,70.48
2019-02-19T01:09:46.611Z,70.79
2019-02-19T01:10:46.616Z,70.90
2019-02-19T01:11:46.590Z,71.20
2019-02-19T01:12:46.578Z,71.20
2019-02-19T01:13:46.580Z,71.20
2019-02-19T01:14:46.572Z,71.31
2019-02-19T01:15:46.545Z,71.31
2019-02-19T01:16:46.565Z,71.20
2019-02-19T01:17:46.522Z,71.20
2019-02-19T01:18:46.511Z,71.28
2019-02-19T01:19:46.501Z,71.31
2019-02-19T01:20:46.503Z,71.62
2019-02-19T01:21:46.493Z,71.37
2019-02-19T01:22:46.504Z,71.51
2019-02-19T01:23:46.456Z,71.48
2019-02-19T01:24:46.456Z,71.48
2019-02-19T01:25:46.432Z,71.37
2019-02-19T01:26:46.430Z,71.28
2019-02-19T01:27:46.414Z,71.48
2019-02-19T01:28:46.405Z,71.58
2019-02-19T01:29:46.388Z,71.58
2019-02-19T01:30:46.375Z,71.58
2019-02-19T01:31:46.379Z,71.79
2019-02-19T01:32:46.354Z,71.37
2019-02-19T01:33:46.366Z,72.00
2019-02-19T01:34:46.334Z,72.20
2019-02-19T01:35:46.322Z,72.09
2019-02-19T01:36:46.339Z,72.09
2019-02-19T01:37:46.309Z,71.89
2019-02-19T01:38:46.286Z,72.09
2019-02-19T01:39:47.860Z,72.09
2019-02-19T01:40:46.262Z,72.09
2019-02-19T01:41:46.251Z,72.41
2019-02-19T01:42:46.242Z,72.41
2019-02-19T01:43:46.244Z,73.02
2019-02-19T01:44:46.235Z,72.61
2019-02-19T01:45:46.214Z,73.13
2019-02-19T01:46:46.195Z,72.72
2019-02-19T01:47:46.189Z,73.23
2019-02-19T01:48:46.173Z,73.54
2019-02-19T01:49:46.161Z,73.64
2019-02-19T01:50:46.160Z,73.02
2019-02-19T01:51:46.150Z,73.85
2019-02-19T01:52:46.131Z,73.64
2019-02-19T01:53:46.116Z,74.15
2019-02-19T01:54:46.124Z,74.15
2019-02-19T01:55:46.098Z,73.95
2019-02-19T01:56:46.082Z,74.26
2019-02-19T01:57:46.087Z,74.46
2019-02-19T01:58:46.061Z,74.36
2019-02-19T01:59:46.048Z,74.05
2019-02-19T02:00:46.052Z,75.59
2019-02-19T02:01:46.027Z,75.18
2019-02-19T02:02:46.069Z,75.39
2019-02-19T02:03:46.005Z,75.39
2019-02-19T02:04:46.025Z,75.70
2019-02-19T02:05:46.017Z,76.21
2019-02-19T02:06:46.016Z,76.01
2019-02-19T02:07:45.967Z,76.11
2019-02-19T02:08:45.974Z,76.21
2019-02-19T02:09:45.941Z,76.21
2019-02-19T02:10:45.925Z,76.52
2019-02-19T02:11:45.931Z,76.21
2019-02-19T02:12:45.908Z,76.79
2019-02-19T02:13:45.891Z,76.62
2019-02-19T02:14:45.879Z,77.24
2019-02-19T02:15:45.872Z,77.86
2019-02-19T02:16:45.857Z,78.37
2019-02-19T02:17:45.858Z,78.27
2019-02-19T02:18:45.842Z,78.61
2019-02-19T02:19:45.838Z,78.78
2019-02-19T02:20:45.812Z,79.09
2019-02-19T02:21:45.801Z,79.54
2019-02-19T02:22:45.793Z,79.50
2019-02-19T02:23:45.789Z,79.81
2019-02-19T02:24:45.798Z,79.81
2019-02-19T02:25:45.757Z,79.75
2019-02-19T02:26:45.746Z,79.81
2019-02-19T02:27:45.746Z,80.22
2019-02-19T02:28:45.722Z,80.16
2019-02-19T02:29:45.711Z,80.74
2019-02-19T02:30:45.709Z,80.36
2019-02-19T02:31:45.694Z,80.88
2019-02-19T02:32:45.681Z,80.77
2019-02-19T02:33:45.709Z,81.49
2019-02-19T02:34:45.662Z,81.29
2019-02-19T02:35:45.645Z,81.19
2019-02-19T02:36:45.653Z,81.70
2019-02-19T02:37:45.626Z,81.60
2019-02-19T02:38:45.615Z,81.19
2019-02-19T02:39:45.621Z,80.88
2019-02-19T02:40:45.591Z,81.60
2019-02-19T02:41:45.590Z,81.09
2019-02-19T02:42:45.569Z,81.60
2019-02-19T02:43:45.563Z,81.60
2019-02-19T02:44:45.546Z,81.81
2019-02-19T02:45:52.665Z,82.11
2019-02-19T02:46:46.548Z,82.56
2019-02-19T02:47:45.518Z,82.25
2019-02-19T02:48:45.543Z,82.67
2019-02-19T02:49:45.528Z,83.45
2019-02-19T02:50:45.513Z,82.97
2019-02-19T02:51:45.466Z,83.07
2019-02-19T02:52:45.492Z,83.07
2019-02-19T02:53:45.479Z,83.07
2019-02-19T02:54:45.457Z,83.59
2019-02-19T02:55:45.424Z,84.00
2019-02-19T02:56:45.430Z,84.52
2019-02-19T02:57:45.404Z,85.03
2019-02-19T02:58:45.407Z,84.42
2019-02-19T02:59:45.375Z,85.44
2019-02-19T03:00:45.390Z,85.14
2019-02-19T03:01:45.388Z,85.44
2019-02-19T03:02:45.382Z,85.44
2019-02-19T03:03:45.333Z,85.75
2019-02-19T03:04:45.331Z,86.06
2019-02-19T03:05:45.317Z,86.72
2019-02-19T03:06:45.324Z,86.31
2019-02-19T03:07:45.283Z,87.03
2019-02-19T03:08:45.323Z,87.34
2019-02-19T03:09:45.281Z,87.13
2019-02-19T03:10:45.290Z,87.44
2019-02-19T03:11:45.242Z,87.34
2019-02-19T03:12:45.252Z,87.38
2019-02-19T03:13:45.257Z,87.59
2019-02-19T03:14:45.208Z,88.06
2019-02-19T03:15:45.200Z,88.62
2019-02-19T03:16:45.209Z,88.17
2019-02-19T03:17:45.211Z,88.47
2019-02-19T03:18:45.174Z,88.20
2019-02-19T03:19:45.175Z,88.31
2019-02-19T03:20:45.146Z,88.17
2019-02-19T03:21:45.147Z,88.68
2019-02-19T03:22:45.139Z,88.10
2019-02-19T03:23:45.108Z,88.31
2019-02-19T03:24:45.108Z,89.03
2019-02-19T03:25:45.114Z,89.23
2019-02-19T03:26:45.073Z,89.44
2019-02-19T03:27:45.063Z,89.13
2019-02-19T03:28:45.051Z,89.34
2019-02-19T03:29:45.037Z,89.13
2019-02-19T03:30:45.032Z,89.03
2019-02-19T03:31:45.024Z,89.54
2019-02-19T03:32:45.025Z,89.34
2019-02-19T03:33:45.004Z,89.44
2019-02-19T03:34:44.985Z,89.44
2019-02-19T03:35:44.968Z,89.34
2019-02-19T03:36:44.971Z,89.54
2019-02-19T03:37:44.957Z,89.34
2019-02-19T03:38:44.956Z,89.44
2019-02-19T03:39:44.958Z,89.44
2019-02-19T03:40:44.950Z,89.75
2019-02-19T03:41:44.918Z,90.06
2019-02-19T03:42:44.930Z,89.44
2019-02-19T03:43:44.902Z,89.44
2019-02-19T03:44:44.888Z,89.54
2019-02-19T03:45:44.875Z,89.75
2019-02-19T03:46:44.899Z,89.23
2019-02-19T03:47:44.892Z,89.44
2019-02-19T03:48:44.862Z,89.44
2019-02-19T03:49:44.820Z,89.34
2019-02-19T03:50:44.825Z,89.03
2019-02-19T03:51:44.816Z,89.44
2019-02-19T03:52:44.783Z,89.44
2019-02-19T03:53:44.770Z,89.28
2019-02-19T03:54:44.801Z,89.28
2019-02-19T03:55:44.778Z,89.17
2019-02-19T03:56:44.755Z,89.23
2019-02-19T03:57:44.726Z,89.03
2019-02-19T03:58:44.727Z,89.38
2019-02-19T03:59:44.704Z,89.34
2019-02-19T04:00:44.752Z,89.54
2019-02-19T04:01:44.722Z,89.38
2019-02-19T04:02:44.683Z,89.03
2019-02-19T04:03:44.656Z,89.13
2019-02-19T04:04:44.654Z,89.54
2019-02-19T04:05:44.667Z,89.95
2019-02-19T04:06:44.641Z,89.69
2019-02-19T04:07:44.611Z,89.13
2019-02-19T04:08:44.611Z,89.85
2019-02-19T04:09:44.589Z,89.34
2019-02-19T04:10:44.578Z,90.00
2019-02-19T04:11:44.645Z,89.58
2019-02-19T04:12:44.574Z,89.54
2019-02-19T04:13:44.574Z,89.89
2019-02-19T04:14:44.538Z,90.00
2019-02-19T04:15:44.526Z,90.20
2019-02-19T04:16:44.561Z,89.89
2019-02-19T04:17:44.514Z,90.41
2019-02-19T04:18:44.491Z,90.10
2019-02-19T04:19:44.522Z,90.10
2019-02-19T04:20:44.460Z,90.20
2019-02-19T04:21:44.469Z,90.20
2019-02-19T04:22:44.441Z,90.20
2019-02-19T04:23:44.431Z,90.20
2019-02-19T04:24:44.440Z,90.20
2019-02-19T04:25:44.405Z,90.20
2019-02-19T04:26:44.392Z,90.00
2019-02-19T04:27:44.382Z,90.00
2019-02-19T04:28:44.370Z,90.06
2019-02-19T04:29:44.364Z,89.89
2019-02-19T04:30:44.368Z,90.26
2019-02-19T04:31:44.336Z,90.06
2019-02-19T04:32:44.326Z,89.79
2019-02-19T04:33:44.314Z,89.79
2019-02-19T04:34:44.302Z,89.48
2019-02-19T04:35:44.319Z,89.58
2019-02-19T04:36:44.318Z,89.48
2019-02-19T04:37:44.270Z,89.58
2019-02-19T04:38:44.268Z,90.20
2019-02-19T04:39:44.247Z,90.20
2019-02-19T04:40:44.237Z,90.31
2019-02-19T04:41:44.240Z,90.10
2019-02-19T04:42:44.256Z,90.20
2019-02-19T04:43:44.217Z,90.10
2019-02-19T04:44:44.198Z,90.41
2019-02-19T04:45:44.197Z,90.10
2019-02-19T04:46:44.168Z,89.79
2019-02-19T04:47:44.169Z,90.51
2019-02-19T04:48:44.192Z,90.10
2019-02-19T04:49:44.134Z,89.48
2019-02-19T04:50:44.124Z,89.69
2019-02-19T04:51:44.113Z,90.00
2019-02-19T04:52:44.124Z,90.00
2019-02-19T04:53:44.090Z,90.20
2019-02-19T04:54:44.085Z,90.51
2019-02-19T04:55:44.133Z,90.51
2019-02-19T04:56:44.093Z,90.51
2019-02-19T04:57:44.045Z,90.41
2019-02-19T04:58:44.056Z,90.72
2019-02-19T04:59:44.023Z,90.51
2019-02-19T05:00:44.011Z,90.31
2019-02-19T05:01:44.014Z,90.51
2019-02-19T05:02:43.988Z,90.41
2019-02-19T05:03:43.991Z,90.31
2019-02-19T05:04:43.971Z,90.20
2019-02-19T05:05:43.982Z,90.41
2019-02-19T05:06:43.957Z,90.41
2019-02-19T05:07:43.933Z,91.24
2019-02-19T05:08:44.597Z,91.03
2019-02-19T05:09:43.911Z,90.41
2019-02-19T05:10:43.899Z,90.51
2019-02-19T05:11:43.897Z,90.61
2019-02-19T05:12:43.896Z,90.82
2019-02-19T05:13:43.865Z,90.92
2019-02-19T05:14:43.853Z,91.03
2019-02-19T05:15:43.892Z,91.03
2019-02-19T05:16:43.832Z,90.61
2019-02-19T05:17:43.837Z,90.61
2019-02-19T05:18:43.820Z,90.57
2019-02-19T05:19:43.799Z,91.03
2019-02-19T05:20:43.786Z,90.99
2019-02-19T05:21:43.776Z,91.03
2019-02-19T05:22:43.762Z,90.61
2019-02-19T05:23:43.770Z,90.82
2019-02-19T05:24:43.750Z,91.03
2019-02-19T05:25:43.743Z,90.61
2019-02-19T05:26:43.721Z,90.92
2019-02-19T05:27:43.712Z,91.03
2019-02-19T05:28:43.704Z,91.24
2019-02-19T05:29:43.700Z,90.51
2019-02-19T05:30:43.704Z,90.41
2019-02-19T05:31:43.662Z,90.41
2019-02-19T05:32:43.663Z,90.51
2019-02-19T05:33:43.641Z,90.51
2019-02-19T05:34:43.628Z,90.41
2019-02-19T05:35:43.628Z,90.51
2019-02-19T05:36:43.635Z,91.24
2019-02-19T05:37:43.593Z,91.13
2019-02-19T05:38:43.586Z,91.34
2019-02-19T05:39:43.588Z,91.13
2019-02-19T05:40:43.610Z,90.61
2019-02-19T05:41:43.571Z,90.72
2019-02-19T05:42:43.557Z,90.51
2019-02-19T05:43:43.532Z,90.31
2019-02-19T05:44:43.534Z,90.51
2019-02-19T05:45:43.546Z,90.61
2019-02-19T05:46:49.733Z,91.13
2019-02-19T05:47:44.514Z,91.13
2019-02-19T05:48:43.478Z,91.03
2019-02-19T05:49:43.548Z,90.61
2019-02-19T05:50:43.460Z,90.61
2019-02-19T05:51:43.443Z,90.10
2019-02-19T05:52:43.440Z,89.89
2019-02-19T05:53:44.857Z,90.31
2019-02-19T05:54:43.411Z,89.79
2019-02-19T05:55:43.410Z,90.35
2019-02-19T05:56:43.394Z,89.73
2019-02-19T05:57:43.375Z,90.14
2019-02-19T05:58:43.368Z,89.94
2019-02-19T05:59:43.354Z,90.04
2019-02-19T06:00:43.401Z,89.83
2019-02-19T06:01:43.363Z,90.55
2019-02-19T06:02:43.348Z,89.94
2019-02-19T06:03:43.315Z,90.04
2019-02-19T06:04:43.299Z,89.73
2019-02-19T06:05:43.318Z,89.83
2019-02-19T06:06:43.302Z,89.73
2019-02-19T06:07:43.272Z,89.83
2019-02-19T06:08:43.255Z,89.94
2019-02-19T06:09:43.241Z,90.14
2019-02-19T06:10:44.187Z,90.45
2019-02-19T06:11:43.231Z,90.45
2019-02-19T06:12:43.250Z,89.83
2019-02-19T06:13:43.197Z,89.94
2019-02-19T06:14:43.203Z,89.83
2019-02-19T06:15:43.171Z,89.73
2019-02-19T06:16:43.167Z,89.62
2019-02-19T06:17:43.177Z,90.14
2019-02-19T06:18:43.162Z,90.14
2019-02-19T06:19:43.130Z,89.62
2019-02-19T06:20:43.115Z,89.94
2019-02-19T06:21:43.103Z,90.20
2019-02-19T06:22:43.098Z,90.31
2019-02-19T06:23:43.083Z,90.10
2019-02-19T06:24:43.106Z,89.58
2019-02-19T06:25:43.060Z,90.35
2019-02-19T06:26:43.054Z,89.89
2019-02-19T06:27:43.047Z,90.55
2019-02-19T06:28:43.042Z,89.83
2019-02-19T06:29:43.030Z,89.79
2019-02-19T06:30:43.024Z,89.83
2019-02-19T06:31:42.992Z,89.73
2019-02-19T06:32:42.979Z,89.62
2019-02-19T06:33:42.966Z,89.48
2019-02-19T06:34:42.974Z,89.73
2019-02-19T06:35:43.026Z,89.69
2019-02-19T06:36:42.941Z,89.58
2019-02-19T06:37:42.951Z,89.52
2019-02-19T06:38:42.910Z,89.94
2019-02-19T06:39:42.897Z,89.38
2019-02-19T06:40:42.891Z,89.52
2019-02-19T06:41:42.896Z,89.38
2019-02-19T06:42:42.865Z,90.04
2019-02-19T06:43:42.859Z,89.73
2019-02-19T06:44:42.871Z,89.58
2019-02-19T06:45:42.835Z,89.32
2019-02-19T06:46:42.820Z,89.32
2019-02-19T06:47:42.826Z,89.38
2019-02-19T06:48:42.801Z,89.48
2019-02-19T06:49:42.836Z,89.38
2019-02-19T06:50:42.779Z,89.28
2019-02-19T06:51:42.770Z,89.58
2019-02-19T06:52:42.754Z,89.48
2019-02-19T06:53:42.764Z,89.42
2019-02-19T06:54:42.735Z,89.17
2019-02-19T06:55:42.722Z,89.52
2019-02-19T06:56:42.745Z,89.28
2019-02-19T06:57:42.699Z,89.28
2019-02-19T06:58:42.695Z,89.07
2019-02-19T06:59:42.684Z,89.58
2019-02-19T07:00:42.667Z,89.42
2019-02-19T07:01:42.653Z,89.42
2019-02-19T07:02:42.638Z,89.32
2019-02-19T07:03:42.681Z,89.11
2019-02-19T07:04:42.643Z,89.38
2019-02-19T07:05:42.608Z,89.73
2019-02-19T07:06:42.596Z,88.96
2019-02-19T07:07:42.587Z,89.73
2019-02-19T07:08:42.576Z,89.32
2019-02-19T07:09:42.604Z,89.52
2019-02-19T07:10:42.566Z,89.42
2019-02-19T07:11:42.541Z,89.73
2019-02-19T07:12:42.580Z,89.62
2019-02-19T07:13:42.548Z,89.32
2019-02-19T07:14:42.503Z,89.32
2019-02-19T07:15:42.515Z,89.42
2019-02-19T07:16:42.491Z,89.83
2019-02-19T07:17:42.482Z,89.83
2019-02-19T07:18:42.469Z,89.83
2019-02-19T07:19:42.451Z,89.83
2019-02-19T07:20:42.443Z,89.62
2019-02-19T07:21:42.460Z,89.11
2019-02-19T07:22:42.428Z,89.32
2019-02-19T07:23:42.403Z,89.32
2019-02-19T07:24:42.392Z,89.32
2019-02-19T07:25:42.426Z,89.22
2019-02-19T07:26:42.379Z,89.22
2019-02-19T07:27:42.362Z,89.22
2019-02-19T07:28:42.395Z,89.07
2019-02-19T07:29:42.342Z,89.11
2019-02-19T07:30:42.328Z,89.62
2019-02-19T07:31:42.328Z,89.73
2019-02-19T07:32:42.304Z,89.32
2019-02-19T07:33:42.316Z,89.32
2019-02-19T07:34:42.281Z,89.32
2019-02-19T07:35:42.272Z,89.42
2019-02-19T07:36:42.287Z,89.22
2019-02-19T07:37:42.252Z,89.11
2019-02-19T07:38:42.243Z,89.42
2019-02-19T07:39:42.253Z,89.32
2019-02-19T07:40:42.215Z,89.32
2019-02-19T07:41:42.204Z,89.11
2019-02-19T07:42:42.190Z,89.11
2019-02-19T07:43:42.202Z,89.25
2019-02-19T07:44:42.167Z,89.52
2019-02-19T07:45:42.175Z,89.25
2019-02-19T07:46:42.146Z,89.32
2019-02-19T07:47:42.134Z,89.62
2019-02-19T07:48:42.121Z,89.42
2019-02-19T07:49:42.175Z,89.22
2019-02-19T07:50:42.100Z,89.32
2019-02-19T07:51:42.755Z,89.32
2019-02-19T07:52:42.077Z,89.62
2019-02-19T07:53:42.073Z,89.22
2019-02-19T07:54:42.059Z,89.77
2019-02-19T07:55:42.078Z,89.62
2019-02-19T07:56:42.072Z,89.36
2019-02-19T07:57:42.930Z,89.32
2019-02-19T07:58:42.015Z,89.62
2019-02-19T07:59:42.000Z,89.32
2019-02-19T08:00:41.996Z,89.52
2019-02-19T08:01:42.018Z,89.73
2019-02-19T08:02:41.976Z,88.80
2019-02-19T08:03:41.957Z,89.22
2019-02-19T08:04:41.945Z,89.42
2019-02-19T08:05:41.933Z,88.08
2019-02-19T08:06:41.931Z,88.70
2019-02-19T08:07:41.944Z,88.59
2019-02-19T08:08:41.900Z,88.35
2019-02-19T08:09:41.889Z,87.98
2019-02-19T08:10:41.876Z,87.56
2019-02-19T08:11:41.869Z,87.73
2019-02-19T08:12:41.856Z,87.77
2019-02-19T08:13:41.874Z,87.93
2019-02-19T08:14:41.838Z,87.63
2019-02-19T08:15:41.820Z,86.60
2019-02-19T08:16:41.813Z,87.01
2019-02-19T08:17:41.803Z,86.80
2019-02-19T08:18:41.793Z,87.32
2019-02-19T08:19:41.806Z,86.80
2019-02-19T08:20:41.771Z,86.90
2019-02-19T08:21:41.756Z,86.70
2019-02-19T08:22:41.742Z,87.26
2019-02-19T08:23:41.733Z,87.05
2019-02-19T08:24:41.722Z,87.01
2019-02-19T08:25:41.752Z,86.45
2019-02-19T08:26:41.697Z,85.52
2019-02-19T08:27:41.686Z,84.97
2019-02-19T08:28:41.676Z,84.00
2019-02-19T08:29:41.665Z,84.45
2019-02-19T08:30:41.655Z,83.53
2019-02-19T08:31:41.680Z,84.05
2019-02-19T08:32:41.630Z,83.49
2019-02-19T08:33:41.629Z,82.90
2019-02-19T08:34:41.609Z,81.56
2019-02-19T08:35:41.603Z,81.81
2019-02-19T08:36:41.585Z,81.67
2019-02-19T08:37:41.622Z,79.98
2019-02-19T08:38:42.997Z,80.22
2019-02-19T08:39:41.560Z,80.74
2019-02-19T08:40:41.542Z,80.60
2019-02-19T08:41:41.529Z,80.70
2019-02-19T08:42:41.532Z,80.08
2019-02-19T08:43:41.528Z,80.60
2019-02-19T08:44:41.523Z,80.60
2019-02-19T08:45:41.483Z,80.08
2019-02-19T08:46:41.471Z,80.08
2019-02-19T08:47:42.938Z,79.63
2019-02-19T08:48:41.480Z,79.84
2019-02-19T08:49:41.456Z,79.67
2019-02-19T08:50:41.442Z,80.22
2019-02-19T08:51:41.425Z,81.49
2019-02-19T08:52:41.407Z,81.60
2019-02-19T08:53:41.396Z,81.09
2019-02-19T08:54:41.381Z,81.56
2019-02-19T08:55:41.383Z,81.35
2019-02-19T08:56:41.390Z,80.12
2019-02-19T08:57:41.348Z,80.08
2019-02-19T08:58:41.336Z,80.63
2019-02-19T08:59:41.324Z,80.22
2019-02-19T09:00:41.312Z,80.63
2019-02-19T09:01:50.469Z,80.22
2019-02-19T09:02:41.294Z,80.22
2019-02-19T09:03:48.907Z,80.63
2019-02-19T09:04:49.001Z,80.12
2019-02-19T09:05:48.967Z,80.02
2019-02-19T09:06:48.965Z,80.39
2019-02-19T09:07:41.288Z,80.39
2019-02-19T09:08:48.402Z,79.98
2019-02-19T09:09:48.943Z,80.08
2019-02-19T09:10:41.214Z,80.19
2019-02-19T09:11:48.376Z,79.88
2019-02-19T09:12:41.234Z,78.96
2019-02-19T09:13:41.170Z,79.57
2019-02-19T09:14:41.211Z,79.43
2019-02-19T09:15:41.150Z,79.02
2019-02-19T09:16:41.135Z,78.71
2019-02-19T09:17:41.199Z,78.30
2019-02-19T09:18:41.206Z,78.09
2019-02-19T09:19:41.241Z,78.13
2019-02-19T09:20:41.100Z,78.64
2019-02-19T09:21:41.114Z,79.50
2019-02-19T09:22:41.115Z,79.26
2019-02-19T09:23:42.315Z,78.54
2019-02-19T09:24:41.046Z,79.05
2019-02-19T09:25:41.068Z,78.54
2019-02-19T09:26:41.027Z,78.54
2019-02-19T09:27:41.025Z,78.20
2019-02-19T09:28:41.001Z,78.09
2019-02-19T09:29:40.990Z,78.20
2019-02-19T09:30:41.010Z,78.09
2019-02-19T09:31:40.980Z,77.34
2019-02-19T09:32:40.959Z,77.55
2019-02-19T09:33:40.958Z,77.55
2019-02-19T09:34:40.938Z,78.16
2019-02-19T09:35:40.923Z,77.95
2019-02-19T09:36:40.950Z,77.99
2019-02-19T09:37:40.903Z,78.30
2019-02-19T09:38:40.902Z,78.40
2019-02-19T09:39:40.891Z,78.27
2019-02-19T09:40:40.868Z,77.78
2019-02-19T09:41:40.857Z,77.95
2019-02-19T09:42:40.876Z,77.44
2019-02-19T09:43:40.834Z,77.44
2019-02-19T09:44:40.839Z,77.30
2019-02-19T09:45:40.811Z,77.10
2019-02-19T09:46:40.801Z,76.45
2019-02-19T09:47:40.794Z,76.48
2019-02-19T09:48:40.817Z,76.28
2019-02-19T09:49:40.768Z,76.45
2019-02-19T09:50:40.766Z,76.17
2019-02-19T09:51:40.758Z,76.31
2019-02-19T09:52:40.747Z,76.93
2019-02-19T09:53:40.743Z,77.17
2019-02-19T09:54:40.741Z,77.58
2019-02-19T09:55:40.705Z,77.89
2019-02-19T09:56:40.689Z,78.44
2019-02-19T09:57:40.745Z,78.20
2019-02-19T09:58:40.667Z,78.33
2019-02-19T09:59:40.659Z,78.54
2019-02-19T10:00:40.685Z,78.44
2019-02-19T10:01:40.635Z,78.13
2019-02-19T10:02:40.623Z,77.72
2019-02-19T10:03:40.627Z,78.20
2019-02-19T10:04:40.601Z,77.44
2019-02-19T10:05:40.589Z,77.40
2019-02-19T10:06:40.608Z,76.07
2019-02-19T10:07:40.582Z,75.11
2019-02-19T10:08:40.578Z,75.38
2019-02-19T10:09:40.544Z,74.70
2019-02-19T10:10:40.545Z,74.70
2019-02-19T10:11:40.521Z,75.38
2019-02-19T10:12:40.539Z,75.18
2019-02-19T10:13:40.500Z,74.73
2019-02-19T10:14:40.507Z,73.33
2019-02-19T10:15:40.478Z,73.98
2019-02-19T10:16:41.829Z,75.11
2019-02-19T10:17:40.464Z,74.80
2019-02-19T10:18:40.460Z,73.85
2019-02-19T10:19:40.457Z,73.85
2019-02-19T10:20:40.422Z,74.29
2019-02-19T10:21:40.414Z,72.96
2019-02-19T10:22:40.403Z,73.06
2019-02-19T10:23:40.389Z,72.55
2019-02-19T10:24:40.408Z,72.75
2019-02-19T10:25:40.381Z,72.65
2019-02-19T10:26:40.802Z,72.34
2019-02-19T10:27:40.344Z,72.96
2019-02-19T10:28:40.334Z,72.96
2019-02-19T10:29:40.322Z,73.23
2019-02-19T10:30:40.354Z,73.36
2019-02-19T10:31:40.316Z,73.91
2019-02-19T10:32:40.289Z,74.22
2019-02-19T10:33:40.277Z,73.95
2019-02-19T10:34:40.266Z,73.88
2019-02-19T10:35:40.258Z,73.88
2019-02-19T10:36:40.297Z,74.05
2019-02-19T10:37:40.259Z,74.36
2019-02-19T10:38:40.222Z,73.78
2019-02-19T10:39:40.225Z,73.88
2019-02-19T10:40:40.200Z,74.74
2019-02-19T10:41:40.200Z,75.15
2019-02-19T10:42:40.210Z,75.11
2019-02-19T10:43:40.178Z,75.01
2019-02-19T10:44:40.154Z,75.35
2019-02-19T10:45:40.154Z,75.45
2019-02-19T10:46:40.138Z,75.87
2019-02-19T10:47:40.126Z,76.17
2019-02-19T10:48:40.151Z,76.38
2019-02-19T10:49:40.115Z,76.38
2019-02-19T10:50:40.101Z,75.56
2019-02-19T10:51:40.076Z,76.34
2019-02-19T10:52:40.067Z,74.91
2019-02-19T10:53:40.054Z,74.32
2019-02-19T10:54:40.090Z,73.36
2019-02-19T10:55:40.031Z,73.33
2019-02-19T10:56:40.037Z,72.86
2019-02-19T10:57:40.010Z,73.36
2019-02-19T10:58:40.024Z,73.47
2019-02-19T10:59:39.991Z,72.89
2019-02-19T11:00:39.995Z,73.57
2019-02-19T11:01:40.008Z,72.75
2019-02-19T11:02:39.956Z,73.27
2019-02-19T11:03:39.944Z,73.27
2019-02-19T11:04:40.081Z,73.06
2019-02-19T11:05:39.920Z,72.65
2019-02-19T11:06:39.955Z,71.83
2019-02-19T11:07:39.915Z,72.14
2019-02-19T11:08:39.887Z,72.03
2019-02-19T11:09:39.873Z,72.86
2019-02-19T11:10:39.862Z,71.80
2019-02-19T11:11:39.851Z,71.83
2019-02-19T11:12:39.900Z,72.75
2019-02-19T11:13:39.840Z,73.81
2019-02-19T11:14:39.823Z,73.47
2019-02-19T11:15:39.809Z,73.50
2019-02-19T11:16:39.799Z,74.19
2019-02-19T11:17:39.785Z,73.57
2019-02-19T11:18:39.827Z,73.95
2019-02-19T11:19:39.763Z,71.73
2019-02-19T11:20:39.752Z,71.93
2019-02-19T11:21:39.738Z,71.93
2019-02-19T11:22:39.761Z,72.03
2019-02-19T11:23:39.720Z,72.99
2019-02-19T11:24:39.745Z,73.19
2019-02-19T11:25:39.706Z,73.19
2019-02-19T11:26:39.683Z,73.36
2019-02-19T11:27:39.671Z,72.38
2019-02-19T11:28:41.065Z,71.66
2019-02-19T11:29:39.650Z,72.14
2019-02-19T11:30:39.683Z,72.68
2019-02-19T11:31:39.645Z,72.38
2019-02-19T11:32:39.616Z,72.78
2019-02-19T11:33:39.614Z,72.27
2019-02-19T11:34:39.592Z,72.38
2019-02-19T11:35:39.580Z,72.58
2019-02-19T11:36:39.606Z,72.51
2019-02-19T11:37:39.568Z,72.00
2019-02-19T11:38:39.552Z,72.99
2019-02-19T11:39:39.534Z,72.68
2019-02-19T11:40:39.538Z,72.58
2019-02-19T11:41:39.514Z,73.40
2019-02-19T11:42:39.542Z,72.75
2019-02-19T11:43:39.490Z,72.96
2019-02-19T11:44:39.480Z,71.93
2019-02-19T11:45:39.468Z,72.03
2019-02-19T11:46:39.456Z,73.36
2019-02-19T11:47:39.444Z,72.96
2019-02-19T11:48:39.476Z,72.65
2019-02-19T11:49:39.424Z,71.69
2019-02-19T11:50:39.411Z,71.28
2019-02-19T11:51:39.402Z,71.83
2019-02-19T11:52:39.389Z,71.52
2019-02-19T11:53:39.378Z,72.03
2019-02-19T11:54:39.430Z,72.14
2019-02-19T11:55:39.363Z,73.16
2019-02-19T11:56:39.342Z,72.65
2019-02-19T11:57:39.337Z,72.58
2019-02-19T11:58:39.320Z,73.50
2019-02-19T11:59:39.319Z,72.78
2019-02-19T12:00:39.351Z,73.06
2019-02-19T12:01:39.289Z,73.10
2019-02-19T12:02:39.279Z,73.71
2019-02-19T12:03:39.265Z,73.30
2019-02-19T12:04:39.254Z,73.36
2019-02-19T12:05:39.241Z,73.27
2019-02-19T12:06:39.292Z,73.36
2019-02-19T12:07:39.220Z,71.83
2019-02-19T12:08:39.526Z,70.94
2019-02-19T12:09:39.200Z,71.04
2019-02-19T12:10:39.187Z,71.52
2019-02-19T12:11:39.253Z,71.01
2019-02-19T12:12:39.164Z,70.91
2019-02-19T12:13:39.153Z,70.91
2019-02-19T12:14:39.143Z,70.50
2019-02-19T12:15:39.141Z,70.50
2019-02-19T12:16:39.122Z,70.50
2019-02-19T12:17:39.160Z,70.40
2019-02-19T12:18:45.855Z,70.50
2019-02-19T12:19:40.092Z,70.32
2019-02-19T12:20:39.080Z,70.53
2019-02-19T12:21:39.063Z,70.91
2019-02-19T12:22:39.066Z,70.84
2019-02-19T12:23:39.075Z,70.94
2019-02-19T12:24:39.034Z,70.73
2019-02-19T12:25:39.031Z,71.04
2019-02-19T12:26:39.013Z,71.66
2019-02-19T12:27:38.997Z,71.76
2019-02-19T12:28:38.995Z,71.73
2019-02-19T12:29:39.009Z,70.91
2019-02-19T12:30:38.995Z,71.22
2019-02-19T12:31:38.951Z,71.73
2019-02-19T12:32:38.953Z,71.69
2019-02-19T12:33:38.931Z,71.59
2019-02-19T12:34:38.927Z,70.77
2019-02-19T12:35:38.938Z,70.87
2019-02-19T12:36:38.905Z,70.19
2019-02-19T12:37:38.883Z,70.50
2019-02-19T12:38:38.903Z,70.81
2019-02-19T12:39:38.865Z,71.22
2019-02-19T12:40:38.853Z,71.59
2019-02-19T12:41:38.949Z,71.28
2019-02-19T12:42:38.827Z,71.28
2019-02-19T12:43:38.816Z,71.59
2019-02-19T12:44:38.824Z,71.08
2019-02-19T12:45:38.796Z,70.77
2019-02-19T12:46:38.785Z,70.87
2019-02-19T12:47:38.819Z,70.77
2019-02-19T12:48:38.760Z,70.87
2019-02-19T12:49:38.749Z,70.16
2019-02-19T12:50:38.751Z,70.81
2019-02-19T12:51:38.728Z,71.59
2019-02-19T12:52:38.714Z,70.98